sensor_id;sensor_type;location;lat;lon;timestamp;temperature;humidity
57264;DHT22;43113;53.124;6.092;2022-09-12T00:00:31;12.80;99.90
57264;DHT22;43113;53.124;6.092;2022-09-12T00:02:58;12.10;99.90
57264;DHT22;43113;53.124;6.092;2022-09-12T00:05:25;12.80;99.90
57264;DHT22;43113;53.124;6.092;2022-09-12T00:07:50;12.80;99.90
57264;DHT22;43113;53.124;6.092;2022-09-12T00:10:16;12.80;99.90
57264;DHT22;43113;53.124;6.092;2022-09-12T00:12:42;12.80;99.90
57264;DHT22;43113;53.124;6.092;2022-09-12T00:15:09;12.80;99.90
57264;DHT22;43113;53.124;6.092;2022-09-12T00:17:36;12.80;99.90
57264;DHT22;43113;53.124;6.092;2022-09-12T00:20:04;12.80;99.90
57264;DHT22;43113;53.124;6.092;2022-09-12T00:22:31;12.80;99.90
57264;DHT22;43113;53.124;6.092;2022-09-12T00:24:57;12.80;99.90
57264;DHT22;43113;53.124;6.092;2022-09-12T00:27:23;12.80;99.90
57264;DHT22;43113;53.124;6.092;2022-09-12T00:29:48;12.80;99.90
57264;DHT22;43113;53.124;6.092;2022-09-12T00:32:14;12.90;99.90
57264;DHT22;43113;53.124;6.092;2022-09-12T00:34:40;13.10;99.90
57264;DHT22;43113;53.124;6.092;2022-09-12T00:37:06;12.90;99.90
57264;DHT22;43113;53.124;6.092;2022-09-12T00:39:31;12.90;99.90
57264;DHT22;43113;53.124;6.092;2022-09-12T00:41:57;12.90;99.90
57264;DHT22;43113;53.124;6.092;2022-09-12T00:47:04;12.80;99.90
57264;DHT22;43113;53.124;6.092;2022-09-12T00:52:11;12.80;99.90
57264;DHT22;43113;53.124;6.092;2022-09-12T00:57:12;12.90;99.90
57264;DHT22;43113;53.124;6.092;2022-09-12T00:59:51;12.80;99.90
57264;DHT22;43113;53.124;6.092;2022-09-12T01:02:18;12.80;99.90
57264;DHT22;43113;53.124;6.092;2022-09-12T01:04:44;12.80;99.90
57264;DHT22;43113;53.124;6.092;2022-09-12T01:07:12;12.80;99.90
57264;DHT22;43113;53.124;6.092;2022-09-12T01:09:41;12.80;99.90
57264;DHT22;43113;53.124;6.092;2022-09-12T01:12:07;12.80;99.90
57264;DHT22;43113;53.124;6.092;2022-09-12T01:14:34;12.70;99.90
57264;DHT22;43113;53.124;6.092;2022-09-12T01:16:59;12.70;99.90
57264;DHT22;43113;53.124;6.092;2022-09-12T01:25:26;12.70;99.90
57264;DHT22;43113;53.124;6.092;2022-09-12T01:31:11;12.60;99.90
57264;DHT22;43113;53.124;6.092;2022-09-12T01:33:57;12.60;99.90
57264;DHT22;43113;53.124;6.092;2022-09-12T01:39:45;12.60;99.90
57264;DHT22;43113;53.124;6.092;2022-09-12T01:42:22;12.60;99.90
57264;DHT22;43113;53.124;6.092;2022-09-12T01:49:59;12.60;99.90
57264;DHT22;43113;53.124;6.092;2022-09-12T01:55:44;12.60;99.90
57264;DHT22;43113;53.124;6.092;2022-09-12T01:58:18;12.60;99.90
57264;DHT22;43113;53.124;6.092;2022-09-12T02:01:06;12.50;99.90
57264;DHT22;43113;53.124;6.092;2022-09-12T02:06:25;12.60;99.90
57264;DHT22;43113;53.124;6.092;2022-09-12T02:08:55;12.60;99.90
57264;DHT22;43113;53.124;6.092;2022-09-12T02:11:23;12.60;99.90
57264;DHT22;43113;53.124;6.092;2022-09-12T02:14:01;12.50;99.90
57264;DHT22;43113;53.124;6.092;2022-09-12T02:16:33;12.50;99.90
57264;DHT22;43113;53.124;6.092;2022-09-12T02:19:08;12.50;99.90
57264;DHT22;43113;53.124;6.092;2022-09-12T02:21:36;12.40;99.90
57264;DHT22;43113;53.124;6.092;2022-09-12T02:24:07;12.40;99.90
57264;DHT22;43113;53.124;6.092;2022-09-12T02:26:40;12.40;99.90
57264;DHT22;43113;53.124;6.092;2022-09-12T02:29:07;12.40;99.90
57264;DHT22;43113;53.124;6.092;2022-09-12T02:34:20;12.30;99.90
57264;DHT22;43113;53.124;6.092;2022-09-12T02:36:58;12.30;99.90
57264;DHT22;43113;53.124;6.092;2022-09-12T02:39:25;12.30;99.90
57264;DHT22;43113;53.124;6.092;2022-09-12T02:41:54;12.30;99.90
57264;DHT22;43113;53.124;6.092;2022-09-12T02:44:21;12.30;99.90
57264;DHT22;43113;53.124;6.092;2022-09-12T02:46:51;12.30;99.90
57264;DHT22;43113;53.124;6.092;2022-09-12T02:49:19;12.20;99.90
57264;DHT22;43113;53.124;6.092;2022-09-12T02:51:45;12.30;99.90
57264;DHT22;43113;53.124;6.092;2022-09-12T02:54:11;12.30;99.90
57264;DHT22;43113;53.124;6.092;2022-09-12T02:56:40;12.30;99.90
57264;DHT22;43113;53.124;6.092;2022-09-12T02:59:09;12.20;99.90
57264;DHT22;43113;53.124;6.092;2022-09-12T03:02:03;12.30;99.90
57264;DHT22;43113;53.124;6.092;2022-09-12T03:07:40;12.20;99.90
57264;DHT22;43113;53.124;6.092;2022-09-12T03:10:31;12.20;99.90
57264;DHT22;43113;53.124;6.092;2022-09-12T03:26:39;12.20;99.90
57264;DHT22;43113;53.124;6.092;2022-09-12T03:29:07;12.20;99.90
57264;DHT22;43113;53.124;6.092;2022-09-12T03:31:35;12.20;99.90
57264;DHT22;43113;53.124;6.092;2022-09-12T03:34:01;12.20;99.90
57264;DHT22;43113;53.124;6.092;2022-09-12T03:36:27;12.20;99.90
57264;DHT22;43113;53.124;6.092;2022-09-12T03:38:54;12.10;99.90
57264;DHT22;43113;53.124;6.092;2022-09-12T03:41:20;12.20;99.90
57264;DHT22;43113;53.124;6.092;2022-09-12T03:43:46;12.20;99.90
57264;DHT22;43113;53.124;6.092;2022-09-12T03:46:12;12.20;99.90
57264;DHT22;43113;53.124;6.092;2022-09-12T03:48:39;12.20;99.90
57264;DHT22;43113;53.124;6.092;2022-09-12T03:51:06;12.20;99.90
57264;DHT22;43113;53.124;6.092;2022-09-12T03:53:33;12.20;99.90
57264;DHT22;43113;53.124;6.092;2022-09-12T03:55:59;12.00;99.90
57264;DHT22;43113;53.124;6.092;2022-09-12T03:58:29;12.30;99.90
57264;DHT22;43113;53.124;6.092;2022-09-12T04:00:55;12.70;99.90
57264;DHT22;43113;53.124;6.092;2022-09-12T04:03:21;12.20;99.90
57264;DHT22;43113;53.124;6.092;2022-09-12T04:05:47;12.30;99.90
57264;DHT22;43113;53.124;6.092;2022-09-12T04:08:13;12.20;99.90
57264;DHT22;43113;53.124;6.092;2022-09-12T04:10:39;12.20;99.90
57264;DHT22;43113;53.124;6.092;2022-09-12T04:13:05;12.30;99.90
57264;DHT22;43113;53.124;6.092;2022-09-12T04:15:31;12.30;99.90
57264;DHT22;43113;53.124;6.092;2022-09-12T04:17:57;12.30;99.90
57264;DHT22;43113;53.124;6.092;2022-09-12T04:20:22;12.40;99.90
57264;DHT22;43113;53.124;6.092;2022-09-12T04:22:48;12.50;99.90
57264;DHT22;43113;53.124;6.092;2022-09-12T04:25:14;12.60;99.90
57264;DHT22;43113;53.124;6.092;2022-09-12T04:27:40;12.70;99.90
57264;DHT22;43113;53.124;6.092;2022-09-12T04:30:06;12.80;99.90
57264;DHT22;43113;53.124;6.092;2022-09-12T04:32:33;12.90;99.90
57264;DHT22;43113;53.124;6.092;2022-09-12T04:34:59;12.90;99.90
57264;DHT22;43113;53.124;6.092;2022-09-12T04:37:25;13.00;99.90
57264;DHT22;43113;53.124;6.092;2022-09-12T04:39:51;13.10;99.90
57264;DHT22;43113;53.124;6.092;2022-09-12T04:42:22;13.10;99.90
57264;DHT22;43113;53.124;6.092;2022-09-12T04:44:48;13.20;99.90
57264;DHT22;43113;53.124;6.092;2022-09-12T04:47:14;13.20;99.90
57264;DHT22;43113;53.124;6.092;2022-09-12T04:49:39;13.20;99.90
57264;DHT22;43113;53.124;6.092;2022-09-12T04:52:05;13.30;99.90
57264;DHT22;43113;53.124;6.092;2022-09-12T04:54:31;13.30;99.90
57264;DHT22;43113;53.124;6.092;2022-09-12T04:56:58;13.40;99.90
57264;DHT22;43113;53.124;6.092;2022-09-12T04:59:24;13.40;99.90
57264;DHT22;43113;53.124;6.092;2022-09-12T05:01:50;13.50;99.90
57264;DHT22;43113;53.124;6.092;2022-09-12T05:04:16;13.50;99.90
57264;DHT22;43113;53.124;6.092;2022-09-12T05:06:42;13.60;99.90
57264;DHT22;43113;53.124;6.092;2022-09-12T05:09:10;13.60;99.90
57264;DHT22;43113;53.124;6.092;2022-09-12T05:11:39;13.60;99.90
57264;DHT22;43113;53.124;6.092;2022-09-12T05:14:04;13.70;99.90
57264;DHT22;43113;53.124;6.092;2022-09-12T05:16:30;13.70;99.90
57264;DHT22;43113;53.124;6.092;2022-09-12T05:18:57;13.70;99.90
57264;DHT22;43113;53.124;6.092;2022-09-12T05:21:24;13.80;99.90
57264;DHT22;43113;53.124;6.092;2022-09-12T05:23:55;13.80;99.90
57264;DHT22;43113;53.124;6.092;2022-09-12T05:26:21;13.90;99.90
57264;DHT22;43113;53.124;6.092;2022-09-12T05:28:48;14.00;99.90
57264;DHT22;43113;53.124;6.092;2022-09-12T05:33:43;14.10;99.90
57264;DHT22;43113;53.124;6.092;2022-09-12T05:36:20;14.00;99.90
57264;DHT22;43113;53.124;6.092;2022-09-12T05:38:46;14.10;99.90
57264;DHT22;43113;53.124;6.092;2022-09-12T05:41:31;14.10;99.90
57264;DHT22;43113;53.124;6.092;2022-09-12T05:44:01;14.10;99.90
57264;DHT22;43113;53.124;6.092;2022-09-12T05:46:30;14.20;99.90
57264;DHT22;43113;53.124;6.092;2022-09-12T05:48:56;14.20;99.90
57264;DHT22;43113;53.124;6.092;2022-09-12T05:51:23;14.20;99.90
57264;DHT22;43113;53.124;6.092;2022-09-12T05:53:56;14.30;99.90
57264;DHT22;43113;53.124;6.092;2022-09-12T05:56:24;14.30;99.90
57264;DHT22;43113;53.124;6.092;2022-09-12T05:58:58;14.40;99.90
57264;DHT22;43113;53.124;6.092;2022-09-12T06:01:25;14.40;99.90
57264;DHT22;43113;53.124;6.092;2022-09-12T06:03:53;14.50;99.90
57264;DHT22;43113;53.124;6.092;2022-09-12T06:06:21;14.50;99.90
57264;DHT22;43113;53.124;6.092;2022-09-12T06:08:52;14.60;99.90
57264;DHT22;43113;53.124;6.092;2022-09-12T06:11:20;14.60;99.90
57264;DHT22;43113;53.124;6.092;2022-09-12T06:13:46;14.70;99.90
57264;DHT22;43113;53.124;6.092;2022-09-12T06:16:22;14.70;99.90
57264;DHT22;43113;53.124;6.092;2022-09-12T06:18:50;14.80;99.90
57264;DHT22;43113;53.124;6.092;2022-09-12T06:21:17;14.90;99.90
57264;DHT22;43113;53.124;6.092;2022-09-12T06:23:42;14.90;99.90
57264;DHT22;43113;53.124;6.092;2022-09-12T06:26:10;14.90;99.90
57264;DHT22;43113;53.124;6.092;2022-09-12T06:28:38;15.00;99.90
57264;DHT22;43113;53.124;6.092;2022-09-12T06:31:06;15.00;99.90
57264;DHT22;43113;53.124;6.092;2022-09-12T06:33:37;15.00;99.90
57264;DHT22;43113;53.124;6.092;2022-09-12T06:36:10;15.00;99.90
57264;DHT22;43113;53.124;6.092;2022-09-12T06:38:36;15.00;99.90
57264;DHT22;43113;53.124;6.092;2022-09-12T06:41:05;15.00;99.90
57264;DHT22;43113;53.124;6.092;2022-09-12T06:43:32;15.10;99.90
57264;DHT22;43113;53.124;6.092;2022-09-12T06:45:58;15.10;99.90
57264;DHT22;43113;53.124;6.092;2022-09-12T06:48:24;15.20;99.90
57264;DHT22;43113;53.124;6.092;2022-09-12T06:51:02;15.30;99.90
57264;DHT22;43113;53.124;6.092;2022-09-12T06:53:29;15.40;99.90
57264;DHT22;43113;53.124;6.092;2022-09-12T06:56:06;15.40;99.90
57264;DHT22;43113;53.124;6.092;2022-09-12T06:58:34;15.60;99.90
57264;DHT22;43113;53.124;6.092;2022-09-12T07:01:05;15.70;99.90
57264;DHT22;43113;53.124;6.092;2022-09-12T07:03:32;15.80;99.90
57264;DHT22;43113;53.124;6.092;2022-09-12T07:06:03;15.80;99.90
57264;DHT22;43113;53.124;6.092;2022-09-12T07:08:29;15.90;99.90
57264;DHT22;43113;53.124;6.092;2022-09-12T07:10:57;16.00;99.90
57264;DHT22;43113;53.124;6.092;2022-09-12T07:13:24;15.90;99.90
57264;DHT22;43113;53.124;6.092;2022-09-12T07:15:49;16.00;99.90
57264;DHT22;43113;53.124;6.092;2022-09-12T07:18:16;16.00;99.90
57264;DHT22;43113;53.124;6.092;2022-09-12T07:20:42;16.00;99.90
57264;DHT22;43113;53.124;6.092;2022-09-12T07:23:08;16.00;99.90
57264;DHT22;43113;53.124;6.092;2022-09-12T07:25:34;16.00;99.90
57264;DHT22;43113;53.124;6.092;2022-09-12T07:28:02;16.10;99.90
57264;DHT22;43113;53.124;6.092;2022-09-12T07:30:27;16.20;99.90
57264;DHT22;43113;53.124;6.092;2022-09-12T07:32:53;16.30;99.90
57264;DHT22;43113;53.124;6.092;2022-09-12T07:35:20;16.50;99.90
57264;DHT22;43113;53.124;6.092;2022-09-12T07:37:45;16.70;99.90
57264;DHT22;43113;53.124;6.092;2022-09-12T07:40:11;16.80;99.90
57264;DHT22;43113;53.124;6.092;2022-09-12T07:42:37;17.00;99.90
57264;DHT22;43113;53.124;6.092;2022-09-12T07:45:03;17.00;99.90
57264;DHT22;43113;53.124;6.092;2022-09-12T07:47:28;17.10;99.90
57264;DHT22;43113;53.124;6.092;2022-09-12T07:49:54;17.10;99.90
57264;DHT22;43113;53.124;6.092;2022-09-12T07:52:21;17.10;99.90
57264;DHT22;43113;53.124;6.092;2022-09-12T07:54:46;17.10;99.90
57264;DHT22;43113;53.124;6.092;2022-09-12T07:57:12;17.10;99.90
57264;DHT22;43113;53.124;6.092;2022-09-12T07:59:43;17.20;99.90
57264;DHT22;43113;53.124;6.092;2022-09-12T08:02:10;17.30;99.90
57264;DHT22;43113;53.124;6.092;2022-09-12T08:04:38;17.30;99.90
57264;DHT22;43113;53.124;6.092;2022-09-12T08:07:04;17.40;99.90
57264;DHT22;43113;53.124;6.092;2022-09-12T08:09:31;17.50;99.90
57264;DHT22;43113;53.124;6.092;2022-09-12T08:11:56;17.60;99.90
57264;DHT22;43113;53.124;6.092;2022-09-12T08:14:22;17.80;99.90
57264;DHT22;43113;53.124;6.092;2022-09-12T08:16:48;18.10;99.90
57264;DHT22;43113;53.124;6.092;2022-09-12T08:19:13;18.30;99.90
57264;DHT22;43113;53.124;6.092;2022-09-12T08:21:39;18.50;99.90
57264;DHT22;43113;53.124;6.092;2022-09-12T08:24:05;18.80;99.90
57264;DHT22;43113;53.124;6.092;2022-09-12T08:26:32;19.20;99.90
57264;DHT22;43113;53.124;6.092;2022-09-12T08:28:58;19.50;99.90
57264;DHT22;43113;53.124;6.092;2022-09-12T08:31:26;19.70;99.90
57264;DHT22;43113;53.124;6.092;2022-09-12T08:33:55;19.70;99.90
57264;DHT22;43113;53.124;6.092;2022-09-12T08:36:22;19.90;99.90
57264;DHT22;43113;53.124;6.092;2022-09-12T08:38:59;19.90;99.90
57264;DHT22;43113;53.124;6.092;2022-09-12T08:41:29;20.10;99.90
57264;DHT22;43113;53.124;6.092;2022-09-12T08:52:23;21.00;99.90
57264;DHT22;43113;53.124;6.092;2022-09-12T08:54:50;21.30;99.90
57264;DHT22;43113;53.124;6.092;2022-09-12T08:57:16;21.40;99.90
57264;DHT22;43113;53.124;6.092;2022-09-12T08:59:44;21.30;99.90
57264;DHT22;43113;53.124;6.092;2022-09-12T09:08:13;21.60;99.90
57264;DHT22;43113;53.124;6.092;2022-09-12T09:10:52;22.30;99.90
57264;DHT22;43113;53.124;6.092;2022-09-12T09:13:40;23.10;99.90
57264;DHT22;43113;53.124;6.092;2022-09-12T09:16:31;23.70;99.90
57264;DHT22;43113;53.124;6.092;2022-09-12T09:19:07;23.80;99.90
57264;DHT22;43113;53.124;6.092;2022-09-12T09:24:18;23.60;99.90
57264;DHT22;43113;53.124;6.092;2022-09-12T09:26:59;23.60;99.90
57264;DHT22;43113;53.124;6.092;2022-09-12T09:29:35;23.60;99.90
57264;DHT22;43113;53.124;6.092;2022-09-12T09:32:11;24.60;99.90
57264;DHT22;43113;53.124;6.092;2022-09-12T09:34:38;25.20;99.10
57264;DHT22;43113;53.124;6.092;2022-09-12T09:43:06;27.50;96.00
57264;DHT22;43113;53.124;6.092;2022-09-12T09:45:39;27.90;95.60
57264;DHT22;43113;53.124;6.092;2022-09-12T09:50:49;30.20;93.10
57264;DHT22;43113;53.124;6.092;2022-09-12T09:56:35;30.90;90.40
57264;DHT22;43113;53.124;6.092;2022-09-12T09:59:32;31.40;89.50
57264;DHT22;43113;53.124;6.092;2022-09-12T10:04:40;30.10;88.20
57264;DHT22;43113;53.124;6.092;2022-09-12T10:07:17;30.90;89.80
57264;DHT22;43113;53.124;6.092;2022-09-12T10:10:04;31.20;88.40
57264;DHT22;43113;53.124;6.092;2022-09-12T10:12:30;32.20;88.10
57264;DHT22;43113;53.124;6.092;2022-09-12T10:15:00;32.20;87.10
57264;DHT22;43113;53.124;6.092;2022-09-12T10:17:42;32.70;84.70
57264;DHT22;43113;53.124;6.092;2022-09-12T10:20:28;32.50;84.40
57264;DHT22;43113;53.124;6.092;2022-09-12T10:22:54;32.90;82.70
57264;DHT22;43113;53.124;6.092;2022-09-12T10:25:23;32.90;82.80
57264;DHT22;43113;53.124;6.092;2022-09-12T10:27:58;33.10;81.10
57264;DHT22;43113;53.124;6.092;2022-09-12T10:30:25;33.20;80.60
57264;DHT22;43113;53.124;6.092;2022-09-12T10:33:03;33.50;80.30
57264;DHT22;43113;53.124;6.092;2022-09-12T10:35:42;33.80;79.90
57264;DHT22;43113;53.124;6.092;2022-09-12T10:38:23;33.70;79.40
57264;DHT22;43113;53.124;6.092;2022-09-12T10:41:08;34.10;77.70
57264;DHT22;43113;53.124;6.092;2022-09-12T10:43:39;34.40;78.30
57264;DHT22;43113;53.124;6.092;2022-09-12T10:48:48;33.60;80.30
57264;DHT22;43113;53.124;6.092;2022-09-12T10:51:26;33.40;76.40
57264;DHT22;43113;53.124;6.092;2022-09-12T10:53:54;33.50;75.80
57264;DHT22;43113;53.124;6.092;2022-09-12T10:56:25;33.20;74.20
57264;DHT22;43113;53.124;6.092;2022-09-12T11:01:45;33.50;76.10
57264;DHT22;43113;53.124;6.092;2022-09-12T11:04:51;34.00;78.20
57264;DHT22;43113;53.124;6.092;2022-09-12T11:10:59;33.70;75.10
57264;DHT22;43113;53.124;6.092;2022-09-12T11:15:58;34.10;74.20
57264;DHT22;43113;53.124;6.092;2022-09-12T11:26:49;32.30;74.40
57264;DHT22;43113;53.124;6.092;2022-09-12T11:40:53;31.80;77.00
57264;DHT22;43113;53.124;6.092;2022-09-12T11:46:41;31.30;75.80
57264;DHT22;43113;53.124;6.092;2022-09-12T11:57:16;30.10;77.80
57264;DHT22;43113;53.124;6.092;2022-09-12T12:02:27;30.30;77.70
57264;DHT22;43113;53.124;6.092;2022-09-12T12:05:25;30.40;79.20
57264;DHT22;43113;53.124;6.092;2022-09-12T12:07:56;30.10;79.20
57264;DHT22;43113;53.124;6.092;2022-09-12T12:10:52;30.30;79.20
57264;DHT22;43113;53.124;6.092;2022-09-12T12:13:30;30.70;78.90
57264;DHT22;43113;53.124;6.092;2022-09-12T12:16:00;31.30;77.70
57264;DHT22;43113;53.124;6.092;2022-09-12T12:18:30;31.40;79.30
57264;DHT22;43113;53.124;6.092;2022-09-12T12:26:40;29.70;78.90
57264;DHT22;43113;53.124;6.092;2022-09-12T12:34:39;29.10;79.50
57264;DHT22;43113;53.124;6.092;2022-09-12T12:55:24;29.40;79.90
57264;DHT22;43113;53.124;6.092;2022-09-12T12:57:58;29.10;80.10
57264;DHT22;43113;53.124;6.092;2022-09-12T13:05:36;28.60;81.10
57264;DHT22;43113;53.124;6.092;2022-09-12T13:08:30;28.40;82.00
57264;DHT22;43113;53.124;6.092;2022-09-12T13:13:52;28.30;81.00
57264;DHT22;43113;53.124;6.092;2022-09-12T13:16:34;28.30;81.90
57264;DHT22;43113;53.124;6.092;2022-09-12T13:19:27;28.30;82.90
57264;DHT22;43113;53.124;6.092;2022-09-12T13:21:55;28.30;83.10
57264;DHT22;43113;53.124;6.092;2022-09-12T13:24:22;28.40;83.10
57264;DHT22;43113;53.124;6.092;2022-09-12T13:26:48;28.60;82.50
57264;DHT22;43113;53.124;6.092;2022-09-12T13:29:21;28.60;81.80
57264;DHT22;43113;53.124;6.092;2022-09-12T13:31:51;28.80;81.80
57264;DHT22;43113;53.124;6.092;2022-09-12T13:34:30;28.70;81.50
57264;DHT22;43113;53.124;6.092;2022-09-12T13:37:33;28.40;80.20
57264;DHT22;43113;53.124;6.092;2022-09-12T13:45:11;28.00;82.30
57264;DHT22;43113;53.124;6.092;2022-09-12T13:47:42;28.10;84.70
57264;DHT22;43113;53.124;6.092;2022-09-12T13:50:20;28.30;83.30
57264;DHT22;43113;53.124;6.092;2022-09-12T13:52:56;28.10;84.00
57264;DHT22;43113;53.124;6.092;2022-09-12T13:55:32;28.30;83.70
57264;DHT22;43113;53.124;6.092;2022-09-12T13:58:28;28.30;81.90
57264;DHT22;43113;53.124;6.092;2022-09-12T14:01:12;28.10;85.00
57264;DHT22;43113;53.124;6.092;2022-09-12T14:06:23;28.10;84.00
57264;DHT22;43113;53.124;6.092;2022-09-12T14:08:49;28.00;82.60
57264;DHT22;43113;53.124;6.092;2022-09-12T14:11:26;28.00;83.40
57264;DHT22;43113;53.124;6.092;2022-09-12T14:13:52;27.60;82.90
57264;DHT22;43113;53.124;6.092;2022-09-12T14:16:21;27.50;83.80
57264;DHT22;43113;53.124;6.092;2022-09-12T14:18:49;27.50;84.90
57264;DHT22;43113;53.124;6.092;2022-09-12T14:23:57;27.40;82.80
57264;DHT22;43113;53.124;6.092;2022-09-12T14:26:26;27.40;82.70
57264;DHT22;43113;53.124;6.092;2022-09-12T14:28:53;27.20;83.70
57264;DHT22;43113;53.124;6.092;2022-09-12T14:31:23;27.10;81.60
57264;DHT22;43113;53.124;6.092;2022-09-12T14:33:54;27.00;83.70
57264;DHT22;43113;53.124;6.092;2022-09-12T14:36:29;27.00;82.20
57264;DHT22;43113;53.124;6.092;2022-09-12T14:38:57;27.00;83.50
57264;DHT22;43113;53.124;6.092;2022-09-12T14:41:27;26.90;85.10
57264;DHT22;43113;53.124;6.092;2022-09-12T14:43:59;26.90;83.50
57264;DHT22;43113;53.124;6.092;2022-09-12T14:46:34;26.90;83.20
57264;DHT22;43113;53.124;6.092;2022-09-12T14:51:55;26.30;83.90
57264;DHT22;43113;53.124;6.092;2022-09-12T14:54:34;26.10;85.90
57264;DHT22;43113;53.124;6.092;2022-09-12T14:57:16;26.10;86.00
57264;DHT22;43113;53.124;6.092;2022-09-12T14:59:43;26.10;84.40
57264;DHT22;43113;53.124;6.092;2022-09-12T15:04:40;26.30;84.80
57264;DHT22;43113;53.124;6.092;2022-09-12T15:07:35;26.40;86.50
57264;DHT22;43113;53.124;6.092;2022-09-12T15:10:14;26.30;85.80
57264;DHT22;43113;53.124;6.092;2022-09-12T15:12:41;26.30;85.40
57264;DHT22;43113;53.124;6.092;2022-09-12T15:15:18;26.30;86.60
57264;DHT22;43113;53.124;6.092;2022-09-12T15:17:44;26.20;86.10
57264;DHT22;43113;53.124;6.092;2022-09-12T15:20:11;26.10;85.20
57264;DHT22;43113;53.124;6.092;2022-09-12T15:22:38;26.00;84.70
57264;DHT22;43113;53.124;6.092;2022-09-12T15:25:04;25.90;84.70
57264;DHT22;43113;53.124;6.092;2022-09-12T15:27:31;25.70;86.00
57264;DHT22;43113;53.124;6.092;2022-09-12T15:29:57;25.70;87.00
57264;DHT22;43113;53.124;6.092;2022-09-12T15:32:28;25.60;87.70
57264;DHT22;43113;53.124;6.092;2022-09-12T15:34:57;25.40;87.40
57264;DHT22;43113;53.124;6.092;2022-09-12T15:37:23;25.40;87.60
57264;DHT22;43113;53.124;6.092;2022-09-12T15:39:50;25.20;88.80
57264;DHT22;43113;53.124;6.092;2022-09-12T15:42:17;25.10;90.00
57264;DHT22;43113;53.124;6.092;2022-09-12T15:44:44;24.90;88.20
57264;DHT22;43113;53.124;6.092;2022-09-12T15:47:13;24.80;89.30
57264;DHT22;43113;53.124;6.092;2022-09-12T15:49:39;24.80;90.10
57264;DHT22;43113;53.124;6.092;2022-09-12T15:52:06;24.80;90.40
57264;DHT22;43113;53.124;6.092;2022-09-12T15:54:34;24.70;90.60
57264;DHT22;43113;53.124;6.092;2022-09-12T15:57:00;24.70;90.70
57264;DHT22;43113;53.124;6.092;2022-09-12T15:59:26;24.60;90.90
57264;DHT22;43113;53.124;6.092;2022-09-12T16:01:52;24.60;90.80
57264;DHT22;43113;53.124;6.092;2022-09-12T16:04:23;24.60;90.90
57264;DHT22;43113;53.124;6.092;2022-09-12T16:06:53;24.60;91.60
57264;DHT22;43113;53.124;6.092;2022-09-12T16:09:20;24.60;91.90
57264;DHT22;43113;53.124;6.092;2022-09-12T16:11:46;24.50;91.50
57264;DHT22;43113;53.124;6.092;2022-09-12T16:14:17;24.40;91.80
57264;DHT22;43113;53.124;6.092;2022-09-12T16:16:43;24.30;92.10
57264;DHT22;43113;53.124;6.092;2022-09-12T16:19:10;24.20;92.50
57264;DHT22;43113;53.124;6.092;2022-09-12T16:21:37;24.10;92.60
57264;DHT22;43113;53.124;6.092;2022-09-12T16:24:03;23.90;92.50
57264;DHT22;43113;53.124;6.092;2022-09-12T16:26:29;23.90;92.80
57264;DHT22;43113;53.124;6.092;2022-09-12T16:28:58;23.70;93.30
57264;DHT22;43113;53.124;6.092;2022-09-12T16:31:26;23.60;92.90
57264;DHT22;43113;53.124;6.092;2022-09-12T16:33:52;23.50;93.30
57264;DHT22;43113;53.124;6.092;2022-09-12T16:36:20;23.50;93.80
57264;DHT22;43113;53.124;6.092;2022-09-12T16:38:50;23.40;94.00
57264;DHT22;43113;53.124;6.092;2022-09-12T16:41:19;23.40;94.30
57264;DHT22;43113;53.124;6.092;2022-09-12T16:43:44;23.30;94.50
57264;DHT22;43113;53.124;6.092;2022-09-12T16:46:12;23.30;94.70
57264;DHT22;43113;53.124;6.092;2022-09-12T16:48:48;23.20;95.20
57264;DHT22;43113;53.124;6.092;2022-09-12T16:51:15;23.10;95.30
57264;DHT22;43113;53.124;6.092;2022-09-12T16:53:41;23.10;95.50
57264;DHT22;43113;53.124;6.092;2022-09-12T16:56:08;23.10;95.90
57264;DHT22;43113;53.124;6.092;2022-09-12T16:58:35;23.10;96.20
57264;DHT22;43113;53.124;6.092;2022-09-12T17:01:21;23.00;95.90
57264;DHT22;43113;53.124;6.092;2022-09-12T17:03:47;22.90;96.10
57264;DHT22;43113;53.124;6.092;2022-09-12T17:06:17;22.80;96.40
57264;DHT22;43113;53.124;6.092;2022-09-12T17:08:46;22.70;96.50
57264;DHT22;43113;53.124;6.092;2022-09-12T17:11:14;22.60;96.70
57264;DHT22;43113;53.124;6.092;2022-09-12T17:13:41;22.60;97.00
57264;DHT22;43113;53.124;6.092;2022-09-12T17:16:10;22.50;97.40
57264;DHT22;43113;53.124;6.092;2022-09-12T17:18:39;22.40;97.60
57264;DHT22;43113;53.124;6.092;2022-09-12T17:21:06;22.30;98.00
57264;DHT22;43113;53.124;6.092;2022-09-12T17:23:32;22.10;98.30
57264;DHT22;43113;53.124;6.092;2022-09-12T17:25:58;22.00;99.00
57264;DHT22;43113;53.124;6.092;2022-09-12T17:28:24;21.90;99.10
57264;DHT22;43113;53.124;6.092;2022-09-12T17:30:54;21.80;99.80
57264;DHT22;43113;53.124;6.092;2022-09-12T17:33:21;21.60;99.90
57264;DHT22;43113;53.124;6.092;2022-09-12T17:35:47;21.50;99.90
57264;DHT22;43113;53.124;6.092;2022-09-12T17:38:12;21.50;99.90
57264;DHT22;43113;53.124;6.092;2022-09-12T17:40:38;21.40;99.90
57264;DHT22;43113;53.124;6.092;2022-09-12T17:43:04;21.30;99.90
57264;DHT22;43113;53.124;6.092;2022-09-12T17:45:30;21.20;99.90
57264;DHT22;43113;53.124;6.092;2022-09-12T17:47:59;21.10;99.90
57264;DHT22;43113;53.124;6.092;2022-09-12T17:50:29;21.00;99.90
57264;DHT22;43113;53.124;6.092;2022-09-12T17:52:54;21.00;99.90
57264;DHT22;43113;53.124;6.092;2022-09-12T17:55:22;20.90;99.90
57264;DHT22;43113;53.124;6.092;2022-09-12T17:57:47;20.80;99.90
57264;DHT22;43113;53.124;6.092;2022-09-12T18:00:13;20.80;99.90
57264;DHT22;43113;53.124;6.092;2022-09-12T18:02:39;20.70;99.90
57264;DHT22;43113;53.124;6.092;2022-09-12T18:05:05;20.70;99.90
57264;DHT22;43113;53.124;6.092;2022-09-12T18:07:34;20.60;99.90
57264;DHT22;43113;53.124;6.092;2022-09-12T18:10:01;20.60;99.90
57264;DHT22;43113;53.124;6.092;2022-09-12T18:12:26;20.50;99.90
57264;DHT22;43113;53.124;6.092;2022-09-12T18:14:52;20.50;99.90
57264;DHT22;43113;53.124;6.092;2022-09-12T18:17:18;20.40;99.90
57264;DHT22;43113;53.124;6.092;2022-09-12T18:19:44;20.40;99.90
57264;DHT22;43113;53.124;6.092;2022-09-12T18:22:10;20.30;99.90
57264;DHT22;43113;53.124;6.092;2022-09-12T18:24:36;20.40;99.90
57264;DHT22;43113;53.124;6.092;2022-09-12T18:27:02;20.40;99.90
57264;DHT22;43113;53.124;6.092;2022-09-12T18:29:28;20.40;99.90
57264;DHT22;43113;53.124;6.092;2022-09-12T18:31:54;20.40;99.90
57264;DHT22;43113;53.124;6.092;2022-09-12T18:34:20;20.40;99.90
57264;DHT22;43113;53.124;6.092;2022-09-12T18:36:49;20.40;99.90
57264;DHT22;43113;53.124;6.092;2022-09-12T18:39:16;20.40;99.90
57264;DHT22;43113;53.124;6.092;2022-09-12T18:41:42;20.40;99.90
57264;DHT22;43113;53.124;6.092;2022-09-12T18:44:12;20.40;99.90
57264;DHT22;43113;53.124;6.092;2022-09-12T18:46:38;20.40;99.90
57264;DHT22;43113;53.124;6.092;2022-09-12T18:49:03;20.40;99.90